sensor_id;sensor_type;location;lat;lon;timestamp;temperature;humidity
68804;SHT31;55787;52.678;13.314;2022-09-29T00:01:59;8.12;97.67
68804;SHT31;55787;52.678;13.314;2022-09-29T00:04:26;8.02;98.01
68804;SHT31;55787;52.678;13.314;2022-09-29T00:06:52;7.94;97.74
68804;SHT31;55787;52.678;13.314;2022-09-29T00:09:18;7.85;98.19
68804;SHT31;55787;52.678;13.314;2022-09-29T00:11:45;7.79;99.01
68804;SHT31;55787;52.678;13.314;2022-09-29T00:14:11;7.70;98.68
68804;SHT31;55787;52.678;13.314;2022-09-29T00:16:38;7.63;99.20
68804;SHT31;55787;52.678;13.314;2022-09-29T00:19:04;7.55;98.81
68804;SHT31;55787;52.678;13.314;2022-09-29T00:21:31;7.51;99.09
68804;SHT31;55787;52.678;13.314;2022-09-29T00:23:59;7.50;99.47
68804;SHT31;55787;52.678;13.314;2022-09-29T00:26:26;7.53;99.62
68804;SHT31;55787;52.678;13.314;2022-09-29T00:28:54;7.53;99.36
68804;SHT31;55787;52.678;13.314;2022-09-29T00:31:24;7.48;99.51
68804;SHT31;55787;52.678;13.314;2022-09-29T00:33:51;7.43;99.31
68804;SHT31;55787;52.678;13.314;2022-09-29T00:36:20;7.38;99.25
68804;SHT31;55787;52.678;13.314;2022-09-29T00:38:48;7.34;98.90
68804;SHT31;55787;52.678;13.314;2022-09-29T00:41:26;7.23;98.85
68804;SHT31;55787;52.678;13.314;2022-09-29T00:51:57;6.92;98.95
68804;SHT31;55787;52.678;13.314;2022-09-29T00:54:26;6.89;99.11
68804;SHT31;55787;52.678;13.314;2022-09-29T00:56:55;6.81;99.01
68804;SHT31;55787;52.678;13.314;2022-09-29T00:59:27;6.82;99.08
68804;SHT31;55787;52.678;13.314;2022-09-29T01:01:56;6.83;99.35
68804;SHT31;55787;52.678;13.314;2022-09-29T01:04:22;6.86;99.57
68804;SHT31;55787;52.678;13.314;2022-09-29T01:06:55;6.83;99.33
68804;SHT31;55787;52.678;13.314;2022-09-29T01:09:26;6.79;99.27
68804;SHT31;55787;52.678;13.314;2022-09-29T01:11:55;6.81;99.40
68804;SHT31;55787;52.678;13.314;2022-09-29T01:14:25;6.75;99.20
68804;SHT31;55787;52.678;13.314;2022-09-29T01:16:52;6.78;99.38
68804;SHT31;55787;52.678;13.314;2022-09-29T01:19:49;6.81;99.32
68804;SHT31;55787;52.678;13.314;2022-09-29T01:36:34;6.71;99.05
68804;SHT31;55787;52.678;13.314;2022-09-29T01:39:12;6.67;98.86
68804;SHT31;55787;52.678;13.314;2022-09-29T01:41:54;6.61;98.81
68804;SHT31;55787;52.678;13.314;2022-09-29T01:44:24;6.58;98.82
68804;SHT31;55787;52.678;13.314;2022-09-29T01:46:56;6.59;99.09
68804;SHT31;55787;52.678;13.314;2022-09-29T01:49:28;6.56;98.98
68804;SHT31;55787;52.678;13.314;2022-09-29T01:51:59;6.51;98.77
68804;SHT31;55787;52.678;13.314;2022-09-29T01:54:43;6.51;98.84
68804;SHT31;55787;52.678;13.314;2022-09-29T01:57:16;6.49;99.04
68804;SHT31;55787;52.678;13.314;2022-09-29T01:59:54;6.49;99.08
68804;SHT31;55787;52.678;13.314;2022-09-29T02:02:48;6.55;99.25
68804;SHT31;55787;52.678;13.314;2022-09-29T02:05:22;6.49;99.15
68804;SHT31;55787;52.678;13.314;2022-09-29T02:07:50;6.40;98.91
68804;SHT31;55787;52.678;13.314;2022-09-29T02:10:31;6.31;98.88
68804;SHT31;55787;52.678;13.314;2022-09-29T02:12:59;6.25;98.96
68804;SHT31;55787;52.678;13.314;2022-09-29T02:15:31;6.18;98.94
68804;SHT31;55787;52.678;13.314;2022-09-29T02:18:02;6.17;99.07
68804;SHT31;55787;52.678;13.314;2022-09-29T02:20:32;6.17;99.27
68804;SHT31;55787;52.678;13.314;2022-09-29T02:22:59;6.18;99.65
68804;SHT31;55787;52.678;13.314;2022-09-29T02:25:26;6.21;99.81
68804;SHT31;55787;52.678;13.314;2022-09-29T02:27:52;6.24;99.66
68804;SHT31;55787;52.678;13.314;2022-09-29T02:30:19;6.31;99.77
68804;SHT31;55787;52.678;13.314;2022-09-29T02:32:46;6.38;99.94
68804;SHT31;55787;52.678;13.314;2022-09-29T02:35:13;6.38;99.96
68804;SHT31;55787;52.678;13.314;2022-09-29T02:38:04;6.48;99.99
68804;SHT31;55787;52.678;13.314;2022-09-29T02:40:42;6.56;99.99
68804;SHT31;55787;52.678;13.314;2022-09-29T02:43:30;6.59;99.99
68804;SHT31;55787;52.678;13.314;2022-09-29T02:46:12;6.71;99.99
68804;SHT31;55787;52.678;13.314;2022-09-29T02:51:45;6.86;99.99
68804;SHT31;55787;52.678;13.314;2022-09-29T02:54:39;6.85;99.99
68804;SHT31;55787;52.678;13.314;2022-09-29T02:57:17;6.85;99.99
68804;SHT31;55787;52.678;13.314;2022-09-29T03:00:06;6.88;99.99
68804;SHT31;55787;52.678;13.314;2022-09-29T03:02:37;6.88;99.99
68804;SHT31;55787;52.678;13.314;2022-09-29T03:05:09;6.89;99.99
68804;SHT31;55787;52.678;13.314;2022-09-29T03:07:37;6.88;99.99
68804;SHT31;55787;52.678;13.314;2022-09-29T03:10:06;6.91;99.99
68804;SHT31;55787;52.678;13.314;2022-09-29T03:12:33;6.91;99.99
68804;SHT31;55787;52.678;13.314;2022-09-29T03:15:00;6.96;99.99
68804;SHT31;55787;52.678;13.314;2022-09-29T03:17:27;6.95;99.99
68804;SHT31;55787;52.678;13.314;2022-09-29T03:19:53;6.95;99.99
68804;SHT31;55787;52.678;13.314;2022-09-29T03:22:20;6.93;99.99
68804;SHT31;55787;52.678;13.314;2022-09-29T03:24:47;6.96;99.99
68804;SHT31;55787;52.678;13.314;2022-09-29T03:27:13;7.00;99.99
68804;SHT31;55787;52.678;13.314;2022-09-29T03:29:40;7.03;99.99
68804;SHT31;55787;52.678;13.314;2022-09-29T03:32:06;7.06;99.99
68804;SHT31;55787;52.678;13.314;2022-09-29T03:34:33;7.10;99.99
68804;SHT31;55787;52.678;13.314;2022-09-29T03:37:00;7.07;99.99
68804;SHT31;55787;52.678;13.314;2022-09-29T03:39:27;7.12;99.99
68804;SHT31;55787;52.678;13.314;2022-09-29T03:41:54;7.10;99.99
68804;SHT31;55787;52.678;13.314;2022-09-29T03:44:20;7.12;99.99
68804;SHT31;55787;52.678;13.314;2022-09-29T03:46:47;7.10;99.99
68804;SHT31;55787;52.678;13.314;2022-09-29T03:49:14;7.14;99.99
68804;SHT31;55787;52.678;13.314;2022-09-29T03:51:43;7.13;99.99
68804;SHT31;55787;52.678;13.314;2022-09-29T03:54:10;7.14;99.99
68804;SHT31;55787;52.678;13.314;2022-09-29T03:56:37;7.14;99.99
68804;SHT31;55787;52.678;13.314;2022-09-29T03:59:05;7.12;99.99
68804;SHT31;55787;52.678;13.314;2022-09-29T04:01:34;7.13;99.99
68804;SHT31;55787;52.678;13.314;2022-09-29T04:04:00;7.13;99.99
68804;SHT31;55787;52.678;13.314;2022-09-29T04:06:27;7.13;99.99
68804;SHT31;55787;52.678;13.314;2022-09-29T04:08:53;7.14;99.99
68804;SHT31;55787;52.678;13.314;2022-09-29T04:11:19;7.14;99.99
68804;SHT31;55787;52.678;13.314;2022-09-29T04:13:46;7.16;99.99
68804;SHT31;55787;52.678;13.314;2022-09-29T04:16:13;7.17;99.99
68804;SHT31;55787;52.678;13.314;2022-09-29T04:18:39;7.22;99.99
68804;SHT31;55787;52.678;13.314;2022-09-29T04:21:06;7.19;99.99
68804;SHT31;55787;52.678;13.314;2022-09-29T04:23:34;7.22;99.99
68804;SHT31;55787;52.678;13.314;2022-09-29T04:26:00;7.19;99.99
68804;SHT31;55787;52.678;13.314;2022-09-29T04:28:30;7.22;99.99
68804;SHT31;55787;52.678;13.314;2022-09-29T04:30:57;7.24;99.99
68804;SHT31;55787;52.678;13.314;2022-09-29T04:33:23;7.27;99.99
68804;SHT31;55787;52.678;13.314;2022-09-29T04:35:50;7.28;99.99
68804;SHT31;55787;52.678;13.314;2022-09-29T04:38:16;7.26;99.99
68804;SHT31;55787;52.678;13.314;2022-09-29T04:40:43;7.26;99.99
68804;SHT31;55787;52.678;13.314;2022-09-29T04:43:09;7.27;99.99
68804;SHT31;55787;52.678;13.314;2022-09-29T04:45:36;7.27;99.99
68804;SHT31;55787;52.678;13.314;2022-09-29T04:48:03;7.26;99.99
68804;SHT31;55787;52.678;13.314;2022-09-29T04:50:29;7.27;99.99
68804;SHT31;55787;52.678;13.314;2022-09-29T04:52:56;7.30;99.99
68804;SHT31;55787;52.678;13.314;2022-09-29T04:55:22;7.28;99.99
68804;SHT31;55787;52.678;13.314;2022-09-29T04:57:49;7.30;99.99
68804;SHT31;55787;52.678;13.314;2022-09-29T05:00:16;7.33;99.99
68804;SHT31;55787;52.678;13.314;2022-09-29T05:02:43;7.31;99.99
68804;SHT31;55787;52.678;13.314;2022-09-29T05:05:15;7.34;99.99
68804;SHT31;55787;52.678;13.314;2022-09-29T05:07:41;7.40;99.99
68804;SHT31;55787;52.678;13.314;2022-09-29T05:10:08;7.38;99.99
68804;SHT31;55787;52.678;13.314;2022-09-29T05:12:35;7.40;99.99
68804;SHT31;55787;52.678;13.314;2022-09-29T05:15:02;7.41;99.99
68804;SHT31;55787;52.678;13.314;2022-09-29T05:17:30;7.47;99.99
68804;SHT31;55787;52.678;13.314;2022-09-29T05:19:57;7.51;99.99
68804;SHT31;55787;52.678;13.314;2022-09-29T05:22:23;7.53;99.99
68804;SHT31;55787;52.678;13.314;2022-09-29T05:24:51;7.51;99.96
68804;SHT31;55787;52.678;13.314;2022-09-29T05:27:18;7.55;99.95
68804;SHT31;55787;52.678;13.314;2022-09-29T05:29:45;7.58;99.99
68804;SHT31;55787;52.678;13.314;2022-09-29T05:32:12;7.60;99.99
68804;SHT31;55787;52.678;13.314;2022-09-29T05:34:38;7.65;99.89
68804;SHT31;55787;52.678;13.314;2022-09-29T05:37:05;7.70;99.87
68804;SHT31;55787;52.678;13.314;2022-09-29T05:39:31;7.72;99.98
68804;SHT31;55787;52.678;13.314;2022-09-29T05:42:00;7.71;99.49
68804;SHT31;55787;52.678;13.314;2022-09-29T05:44:28;7.74;99.69
68804;SHT31;55787;52.678;13.314;2022-09-29T05:46:54;7.79;99.78
68804;SHT31;55787;52.678;13.314;2022-09-29T05:49:21;7.79;99.43
68804;SHT31;55787;52.678;13.314;2022-09-29T05:51:48;7.85;99.54
68804;SHT31;55787;52.678;13.314;2022-09-29T05:54:15;7.85;99.17
68804;SHT31;55787;52.678;13.314;2022-09-29T05:56:41;7.88;99.36
68804;SHT31;55787;52.678;13.314;2022-09-29T05:59:11;7.92;99.30
68804;SHT31;55787;52.678;13.314;2022-09-29T06:01:37;7.98;99.38
68804;SHT31;55787;52.678;13.314;2022-09-29T06:04:04;8.01;99.02
68804;SHT31;55787;52.678;13.314;2022-09-29T06:06:30;8.03;98.89
68804;SHT31;55787;52.678;13.314;2022-09-29T06:08:58;8.06;98.96
68804;SHT31;55787;52.678;13.314;2022-09-29T06:11:26;8.03;98.53
68804;SHT31;55787;52.678;13.314;2022-09-29T06:13:54;8.12;98.95
68804;SHT31;55787;52.678;13.314;2022-09-29T06:16:23;8.15;98.71
68804;SHT31;55787;52.678;13.314;2022-09-29T06:18:50;8.22;98.81
68804;SHT31;55787;52.678;13.314;2022-09-29T06:21:21;8.26;98.47
68804;SHT31;55787;52.678;13.314;2022-09-29T06:23:50;8.30;98.57
68804;SHT31;55787;52.678;13.314;2022-09-29T06:26:18;8.39;98.51
68804;SHT31;55787;52.678;13.314;2022-09-29T06:28:49;8.40;98.33
68804;SHT31;55787;52.678;13.314;2022-09-29T06:31:18;8.49;98.22
68804;SHT31;55787;52.678;13.314;2022-09-29T06:33:45;8.47;97.86
68804;SHT31;55787;52.678;13.314;2022-09-29T06:36:14;8.49;97.95
68804;SHT31;55787;52.678;13.314;2022-09-29T06:39:00;8.53;97.77
68804;SHT31;55787;52.678;13.314;2022-09-29T06:41:26;8.61;97.76
68804;SHT31;55787;52.678;13.314;2022-09-29T06:43:55;8.59;97.51
68804;SHT31;55787;52.678;13.314;2022-09-29T06:46:22;8.67;97.68
68804;SHT31;55787;52.678;13.314;2022-09-29T06:48:49;8.70;96.76
68804;SHT31;55787;52.678;13.314;2022-09-29T06:51:15;8.73;97.12
68804;SHT31;55787;52.678;13.314;2022-09-29T06:53:41;8.78;96.89
68804;SHT31;55787;52.678;13.314;2022-09-29T06:56:08;8.89;96.96
68804;SHT31;55787;52.678;13.314;2022-09-29T06:58:34;8.95;96.85
68804;SHT31;55787;52.678;13.314;2022-09-29T07:01:02;9.04;97.02
68804;SHT31;55787;52.678;13.314;2022-09-29T07:03:29;8.92;96.43
68804;SHT31;55787;52.678;13.314;2022-09-29T07:05:55;9.00;96.36
68804;SHT31;55787;52.678;13.314;2022-09-29T07:08:42;9.11;96.51
68804;SHT31;55787;52.678;13.314;2022-09-29T07:11:11;9.21;96.35
68804;SHT31;55787;52.678;13.314;2022-09-29T07:13:37;9.28;96.13
68804;SHT31;55787;52.678;13.314;2022-09-29T07:16:05;9.38;96.11
68804;SHT31;55787;52.678;13.314;2022-09-29T07:18:34;9.43;95.44
68804;SHT31;55787;52.678;13.314;2022-09-29T07:21:07;9.50;95.42
68804;SHT31;55787;52.678;13.314;2022-09-29T07:23:35;9.28;95.22
68804;SHT31;55787;52.678;13.314;2022-09-29T07:26:03;9.31;95.76
68804;SHT31;55787;52.678;13.314;2022-09-29T07:28:30;9.38;95.15
68804;SHT31;55787;52.678;13.314;2022-09-29T07:31:10;9.45;95.24
68804;SHT31;55787;52.678;13.314;2022-09-29T07:33:41;9.43;94.92
68804;SHT31;55787;52.678;13.314;2022-09-29T07:36:09;9.50;95.41
68804;SHT31;55787;52.678;13.314;2022-09-29T07:38:36;9.57;93.87
68804;SHT31;55787;52.678;13.314;2022-09-29T07:41:04;9.64;94.78
68804;SHT31;55787;52.678;13.314;2022-09-29T07:43:31;9.79;94.96
68804;SHT31;55787;52.678;13.314;2022-09-29T07:45:58;9.90;94.99
68804;SHT31;55787;52.678;13.314;2022-09-29T07:48:28;9.97;94.50
68804;SHT31;55787;52.678;13.314;2022-09-29T07:51:12;9.79;94.69
68804;SHT31;55787;52.678;13.314;2022-09-29T07:53:39;9.80;94.61
68804;SHT31;55787;52.678;13.314;2022-09-29T07:56:25;9.82;94.19
68804;SHT31;55787;52.678;13.314;2022-09-29T07:58:51;9.83;94.78
68804;SHT31;55787;52.678;13.314;2022-09-29T08:01:18;9.86;94.85
68804;SHT31;55787;52.678;13.314;2022-09-29T08:03:50;10.03;94.78
68804;SHT31;55787;52.678;13.314;2022-09-29T08:06:17;10.10;93.56
68804;SHT31;55787;52.678;13.314;2022-09-29T08:08:45;10.00;92.31
68804;SHT31;55787;52.678;13.314;2022-09-29T08:11:28;10.07;93.13
68804;SHT31;55787;52.678;13.314;2022-09-29T08:13:58;10.21;93.41
68804;SHT31;55787;52.678;13.314;2022-09-29T08:16:24;10.20;92.56
68804;SHT31;55787;52.678;13.314;2022-09-29T08:18:51;10.37;92.93
68804;SHT31;55787;52.678;13.314;2022-09-29T08:21:18;10.30;90.92
68804;SHT31;55787;52.678;13.314;2022-09-29T08:23:44;10.54;92.57
68804;SHT31;55787;52.678;13.314;2022-09-29T08:26:13;10.69;91.23
68804;SHT31;55787;52.678;13.314;2022-09-29T08:28:41;10.63;91.05
68804;SHT31;55787;52.678;13.314;2022-09-29T08:33:39;10.61;89.33
68804;SHT31;55787;52.678;13.314;2022-09-29T08:36:06;10.61;90.68
68804;SHT31;55787;52.678;13.314;2022-09-29T08:38:41;10.86;90.60
68804;SHT31;55787;52.678;13.314;2022-09-29T08:41:19;10.91;91.39
68804;SHT31;55787;52.678;13.314;2022-09-29T08:43:49;11.09;91.16
68804;SHT31;55787;52.678;13.314;2022-09-29T08:46:38;11.04;89.91
68804;SHT31;55787;52.678;13.314;2022-09-29T08:49:12;11.14;89.88
68804;SHT31;55787;52.678;13.314;2022-09-29T08:51:56;11.19;90.25
68804;SHT31;55787;52.678;13.314;2022-09-29T08:54:42;11.24;86.53
68804;SHT31;55787;52.678;13.314;2022-09-29T08:57:16;11.68;87.32
68804;SHT31;55787;52.678;13.314;2022-09-29T08:59:54;11.88;85.72
68804;SHT31;55787;52.678;13.314;2022-09-29T09:10:45;12.30;85.15
68804;SHT31;55787;52.678;13.314;2022-09-29T09:16:19;13.26;83.21
68804;SHT31;55787;52.678;13.314;2022-09-29T09:22:13;13.39;78.33
68804;SHT31;55787;52.678;13.314;2022-09-29T09:24:48;13.83;77.55
68804;SHT31;55787;52.678;13.314;2022-09-29T09:27:21;14.16;74.10
68804;SHT31;55787;52.678;13.314;2022-09-29T09:30:02;14.13;74.59
68804;SHT31;55787;52.678;13.314;2022-09-29T09:32:34;13.39;76.55
68804;SHT31;55787;52.678;13.314;2022-09-29T09:35:10;14.38;76.19
68804;SHT31;55787;52.678;13.314;2022-09-29T09:37:50;15.29;73.06
68804;SHT31;55787;52.678;13.314;2022-09-29T09:42:52;14.32;73.39
68804;SHT31;55787;52.678;13.314;2022-09-29T09:45:30;14.09;71.97
68804;SHT31;55787;52.678;13.314;2022-09-29T09:48:05;14.17;71.97
68804;SHT31;55787;52.678;13.314;2022-09-29T09:50:39;15.20;71.76
68804;SHT31;55787;52.678;13.314;2022-09-29T09:53:18;15.03;71.69
68804;SHT31;55787;52.678;13.314;2022-09-29T09:55:54;17.72;66.45
68804;SHT31;55787;52.678;13.314;2022-09-29T10:01:19;19.84;57.71
68804;SHT31;55787;52.678;13.314;2022-09-29T10:03:47;21.35;53.66
68804;SHT31;55787;52.678;13.314;2022-09-29T10:06:13;20.80;49.13
68804;SHT31;55787;52.678;13.314;2022-09-29T10:08:40;22.26;49.80
68804;SHT31;55787;52.678;13.314;2022-09-29T10:11:23;22.36;46.18
68804;SHT31;55787;52.678;13.314;2022-09-29T10:13:57;22.64;50.23
68804;SHT31;55787;52.678;13.314;2022-09-29T10:16:39;22.72;49.72
68804;SHT31;55787;52.678;13.314;2022-09-29T10:19:09;22.57;46.19
68804;SHT31;55787;52.678;13.314;2022-09-29T10:21:41;22.35;50.88
68804;SHT31;55787;52.678;13.314;2022-09-29T10:24:22;23.05;44.45
68804;SHT31;55787;52.678;13.314;2022-09-29T10:26:51;22.20;47.40
68804;SHT31;55787;52.678;13.314;2022-09-29T10:32:26;19.53;53.70
68804;SHT31;55787;52.678;13.314;2022-09-29T10:35:02;18.47;60.90
68804;SHT31;55787;52.678;13.314;2022-09-29T10:37:41;18.40;58.53
68804;SHT31;55787;52.678;13.314;2022-09-29T10:42:38;17.78;58.33
68804;SHT31;55787;52.678;13.314;2022-09-29T10:45:27;17.73;61.63
68804;SHT31;55787;52.678;13.314;2022-09-29T10:50:26;16.55;58.85
68804;SHT31;55787;52.678;13.314;2022-09-29T10:52:54;16.26;65.80
68804;SHT31;55787;52.678;13.314;2022-09-29T10:55:26;16.01;67.86
68804;SHT31;55787;52.678;13.314;2022-09-29T10:57:55;15.72;68.32
68804;SHT31;55787;52.678;13.314;2022-09-29T11:00:37;15.64;68.30
68804;SHT31;55787;52.678;13.314;2022-09-29T11:03:24;15.47;71.00
68804;SHT31;55787;52.678;13.314;2022-09-29T11:05:56;15.37;70.52
68804;SHT31;55787;52.678;13.314;2022-09-29T11:08:23;15.44;69.11
68804;SHT31;55787;52.678;13.314;2022-09-29T11:13:38;15.23;66.00
68804;SHT31;55787;52.678;13.314;2022-09-29T11:16:17;14.92;64.73
68804;SHT31;55787;52.678;13.314;2022-09-29T11:18:46;15.09;68.73
68804;SHT31;55787;52.678;13.314;2022-09-29T11:24:05;15.04;63.60
68804;SHT31;55787;52.678;13.314;2022-09-29T11:30:10;15.16;61.19
68804;SHT31;55787;52.678;13.314;2022-09-29T11:35:44;15.19;66.72
68804;SHT31;55787;52.678;13.314;2022-09-29T11:38:40;15.19;66.41
68804;SHT31;55787;52.678;13.314;2022-09-29T11:41:30;15.34;63.89
68804;SHT31;55787;52.678;13.314;2022-09-29T11:46:46;15.49;64.54
68804;SHT31;55787;52.678;13.314;2022-09-29T11:49:28;16.19;63.64
68804;SHT31;55787;52.678;13.314;2022-09-29T12:03:22;16.25;59.10
68804;SHT31;55787;52.678;13.314;2022-09-29T12:06:25;15.91;65.94
68804;SHT31;55787;52.678;13.314;2022-09-29T12:09:07;15.63;64.12
68804;SHT31;55787;52.678;13.314;2022-09-29T12:11:56;15.57;62.96
68804;SHT31;55787;52.678;13.314;2022-09-29T12:17:46;15.44;65.15
68804;SHT31;55787;52.678;13.314;2022-09-29T12:22:45;15.41;63.47
68804;SHT31;55787;52.678;13.314;2022-09-29T12:25:15;15.32;64.57
68804;SHT31;55787;52.678;13.314;2022-09-29T12:27:44;15.27;66.68
68804;SHT31;55787;52.678;13.314;2022-09-29T12:32:50;15.22;64.01
68804;SHT31;55787;52.678;13.314;2022-09-29T12:35:22;15.24;65.36
68804;SHT31;55787;52.678;13.314;2022-09-29T12:38:15;14.95;60.30
68804;SHT31;55787;52.678;13.314;2022-09-29T12:41:33;15.09;64.63
68804;SHT31;55787;52.678;13.314;2022-09-29T12:43:53;15.12;71.97
68804;SHT31;55787;52.678;13.314;2022-09-29T12:46:33;15.07;65.89
68804;SHT31;55787;52.678;13.314;2022-09-29T12:51:41;14.86;64.42
68804;SHT31;55787;52.678;13.314;2022-09-29T12:54:30;14.88;63.70
68804;SHT31;55787;52.678;13.314;2022-09-29T12:57:03;14.91;63.21
68804;SHT31;55787;52.678;13.314;2022-09-29T12:59:34;14.86;64.72
68804;SHT31;55787;52.678;13.314;2022-09-29T13:30:11;18.47;51.35
68804;SHT31;55787;52.678;13.314;2022-09-29T13:32:44;18.82;48.52
68804;SHT31;55787;52.678;13.314;2022-09-29T13:35:17;19.01;49.10
68804;SHT31;55787;52.678;13.314;2022-09-29T13:37:48;19.39;52.04
68804;SHT31;55787;52.678;13.314;2022-09-29T13:40:19;19.54;47.69
68804;SHT31;55787;52.678;13.314;2022-09-29T13:42:48;18.72;44.41
68804;SHT31;55787;52.678;13.314;2022-09-29T13:50:41;18.73;47.49
68804;SHT31;55787;52.678;13.314;2022-09-29T13:58:33;17.96;46.59
68804;SHT31;55787;52.678;13.314;2022-09-29T14:01:03;18.24;45.15
68804;SHT31;55787;52.678;13.314;2022-09-29T14:06:12;18.16;46.42
68804;SHT31;55787;52.678;13.314;2022-09-29T14:09:07;18.23;51.20
68804;SHT31;55787;52.678;13.314;2022-09-29T14:11:43;17.72;46.70
68804;SHT31;55787;52.678;13.314;2022-09-29T14:27:58;15.77;63.91
68804;SHT31;55787;52.678;13.314;2022-09-29T14:33:01;15.29;55.36
68804;SHT31;55787;52.678;13.314;2022-09-29T14:35:33;15.63;64.67
68804;SHT31;55787;52.678;13.314;2022-09-29T14:38:12;15.54;65.32
68804;SHT31;55787;52.678;13.314;2022-09-29T14:41:03;15.46;58.79
68804;SHT31;55787;52.678;13.314;2022-09-29T14:43:44;15.49;54.72
68804;SHT31;55787;52.678;13.314;2022-09-29T15:03:46;14.62;58.41
68804;SHT31;55787;52.678;13.314;2022-09-29T15:08:51;14.46;69.54
68804;SHT31;55787;52.678;13.314;2022-09-29T15:12:11;14.48;66.65
68804;SHT31;55787;52.678;13.314;2022-09-29T15:14:31;14.57;69.00
68804;SHT31;55787;52.678;13.314;2022-09-29T15:25:33;16.45;55.05
68804;SHT31;55787;52.678;13.314;2022-09-29T15:28:01;16.74;54.19
68804;SHT31;55787;52.678;13.314;2022-09-29T15:30:29;16.60;53.52
68804;SHT31;55787;52.678;13.314;2022-09-29T15:33:08;15.98;60.74
68804;SHT31;55787;52.678;13.314;2022-09-29T15:35:41;15.78;57.73
68804;SHT31;55787;52.678;13.314;2022-09-29T15:40:36;15.22;63.72
68804;SHT31;55787;52.678;13.314;2022-09-29T15:43:20;15.02;63.14
68804;SHT31;55787;52.678;13.314;2022-09-29T15:45:59;14.64;64.41
68804;SHT31;55787;52.678;13.314;2022-09-29T15:48:27;14.34;64.60
68804;SHT31;55787;52.678;13.314;2022-09-29T15:50:55;14.21;61.80
68804;SHT31;55787;52.678;13.314;2022-09-29T15:53:23;13.84;67.68
68804;SHT31;55787;52.678;13.314;2022-09-29T15:55:50;13.53;68.84
68804;SHT31;55787;52.678;13.314;2022-09-29T16:01:03;12.97;73.14
68804;SHT31;55787;52.678;13.314;2022-09-29T16:03:40;12.76;73.01
68804;SHT31;55787;52.678;13.314;2022-09-29T16:09:01;12.33;76.37
68804;SHT31;55787;52.678;13.314;2022-09-29T16:11:33;12.16;77.48
68804;SHT31;55787;52.678;13.314;2022-09-29T16:14:06;11.99;78.35
68804;SHT31;55787;52.678;13.314;2022-09-29T16:16:43;11.86;78.00
68804;SHT31;55787;52.678;13.314;2022-09-29T16:19:28;11.71;79.66
68804;SHT31;55787;52.678;13.314;2022-09-29T16:21:58;11.54;80.19
68804;SHT31;55787;52.678;13.314;2022-09-29T16:24:30;11.44;80.79
68804;SHT31;55787;52.678;13.314;2022-09-29T16:26:58;11.26;81.91
68804;SHT31;55787;52.678;13.314;2022-09-29T16:29:33;11.14;82.25
68804;SHT31;55787;52.678;13.314;2022-09-29T16:38:09;10.68;84.35
68804;SHT31;55787;52.678;13.314;2022-09-29T16:40:39;10.58;84.71
68804;SHT31;55787;52.678;13.314;2022-09-29T16:43:20;10.45;85.45
68804;SHT31;55787;52.678;13.314;2022-09-29T16:45:50;10.31;85.49
68804;SHT31;55787;52.678;13.314;2022-09-29T16:48:17;10.21;85.54
68804;SHT31;55787;52.678;13.314;2022-09-29T16:50:48;10.07;86.61
68804;SHT31;55787;52.678;13.314;2022-09-29T16:53:25;9.94;87.09
68804;SHT31;55787;52.678;13.314;2022-09-29T16:55:59;9.84;87.29
68804;SHT31;55787;52.678;13.314;2022-09-29T16:58:28;9.76;87.23
68804;SHT31;55787;52.678;13.314;2022-09-29T17:00:55;9.62;87.57
68804;SHT31;55787;52.678;13.314;2022-09-29T17:03:22;9.53;87.75
68804;SHT31;55787;52.678;13.314;2022-09-29T17:05:49;9.42;88.43
68804;SHT31;55787;52.678;13.314;2022-09-29T17:08:26;9.28;88.16
68804;SHT31;55787;52.678;13.314;2022-09-29T17:10:55;9.21;88.45
68804;SHT31;55787;52.678;13.314;2022-09-29T17:13:22;9.15;88.19
68804;SHT31;55787;52.678;13.314;2022-09-29T17:15:50;9.07;88.46
68804;SHT31;55787;52.678;13.314;2022-09-29T17:18:19;8.97;89.23
68804;SHT31;55787;52.678;13.314;2022-09-29T17:20:45;8.87;89.28
68804;SHT31;55787;52.678;13.314;2022-09-29T17:23:12;8.78;89.35
68804;SHT31;55787;52.678;13.314;2022-09-29T17:25:40;8.73;89.50
68804;SHT31;55787;52.678;13.314;2022-09-29T17:28:18;8.64;89.93
68804;SHT31;55787;52.678;13.314;2022-09-29T17:30:46;8.54;89.89
68804;SHT31;55787;52.678;13.314;2022-09-29T17:33:15;8.47;90.17
68804;SHT31;55787;52.678;13.314;2022-09-29T17:35:44;8.40;90.12
68804;SHT31;55787;52.678;13.314;2022-09-29T17:38:18;8.32;90.42
68804;SHT31;55787;52.678;13.314;2022-09-29T17:40:48;8.25;90.67
68804;SHT31;55787;52.678;13.314;2022-09-29T17:43:15;8.15;90.43
68804;SHT31;55787;52.678;13.314;2022-09-29T17:45:44;8.10;90.74
68804;SHT31;55787;52.678;13.314;2022-09-29T17:48:11;8.01;90.93
68804;SHT31;55787;52.678;13.314;2022-09-29T17:50:48;7.98;91.23
68804;SHT31;55787;52.678;13.314;2022-09-29T17:53:15;7.92;91.40
68804;SHT31;55787;52.678;13.314;2022-09-29T17:55:47;7.82;91.64
68804;SHT31;55787;52.678;13.314;2022-09-29T17:58:18;7.77;91.56
68804;SHT31;55787;52.678;13.314;2022-09-29T18:00:49;7.70;91.73
68804;SHT31;55787;52.678;13.314;2022-09-29T18:03:18;7.61;92.26
68804;SHT31;55787;52.678;13.314;2022-09-29T18:05:47;7.57;92.39
68804;SHT31;55787;52.678;13.314;2022-09-29T18:08:18;7.51;92.11
68804;SHT31;55787;52.678;13.314;2022-09-29T18:10:58;7.47;92.73
68804;SHT31;55787;52.678;13.314;2022-09-29T18:13:26;7.40;92.26
68804;SHT31;55787;52.678;13.314;2022-09-29T18:15:54;7.33;92.32
68804;SHT31;55787;52.678;13.314;2022-09-29T18:18:21;7.27;92.49
68804;SHT31;55787;52.678;13.314;2022-09-29T18:20:48;7.26;92.62
68804;SHT31;55787;52.678;13.314;2022-09-29T18:23:16;7.22;92.80
68804;SHT31;55787;52.678;13.314;2022-09-29T18:25:45;7.16;93.05
68804;SHT31;55787;52.678;13.314;2022-09-29T18:28:14;7.09;92.98
68804;SHT31;55787;52.678;13.314;2022-09-29T18:30:43;7.06;93.17
68804;SHT31;55787;52.678;13.314;2022-09-29T18:33:13;6.99;93.37
68804;SHT31;55787;52.678;13.314;2022-09-29T18:35:42;6.96;93.06
68804;SHT31;55787;52.678;13.314;2022-09-29T18:38:09;6.88;93.04
68804;SHT31;55787;52.678;13.314;2022-09-29T18:40:37;6.81;93.15
68804;SHT31;55787;52.678;13.314;2022-09-29T18:43:04;6.78;93.59
68804;SHT31;55787;52.678;13.314;2022-09-29T18:45:36;6.73;93.64
68804;SHT31;55787;52.678;13.314;2022-09-29T18:48:05;6.69;94.10
68804;SHT31;55787;52.678;13.314;2022-09-29T18:50:34;6.65;93.88
68804;SHT31;55787;52.678;13.314;2022-09-29T18:53:01;6.59;94.06
68804;SHT31;55787;52.678;13.314;2022-09-29T18:55:30;6.52;94.25
68804;SHT31;55787;52.678;13.314;2022-09-29T18:57:58;6.49;94.10
68804;SHT31;55787;52.678;13.314;2022-09-29T19:00:33;6.46;94.25
68804;SHT31;55787;52.678;13.314;2022-09-29T19:03:02;6.41;94.16
68804;SHT31;55787;52.678;13.314;2022-09-29T19:05:31;6.35;94.52